Vermilion, Illinois
Current Conditions -  °F | °C
As of 9:35 PM on Monday 22 Dec 2014 (Local Time) from KPRG Reporting Station
Light Rain Light Rain  
Wind Chill: 41°   Ceiling: 1700
Heat Index: 46°   Visibility: 10mi
Dew Point: 46°   Wind: 10mph
Humidity: 97%   Direction: 130°SE
Pressure: 29.61"   Gusts: NA
Location:  39.58°N, 87.59°W
Report Text: KPRG 230335Z AUTO 13009KT 10SM -RA OVC017 08/08 A2961 RMK AO2 T00800075
Loading
Personal Weather Stations






























Interactive Weather Map New forecast layout! Learn more

10-Day Weather Forecast

Advertisements
Track Severe Weather on mobile